createdAt,value
2016-05-05T00:00:16.289Z,10.47
2016-05-05T00:01:30.307Z,10.51
2016-05-05T00:02:15.982Z,10.47
2016-05-05T00:03:30.797Z,10.41
2016-05-05T00:04:16.065Z,10.45
2016-05-05T00:05:15.958Z,10.51
2016-05-05T00:06:15.805Z,10.53
2016-05-05T00:07:15.948Z,10.53
2016-05-05T00:08:16.060Z,10.53
2016-05-05T00:09:15.814Z,10.48
2016-05-05T00:10:16.003Z,10.55
2016-05-05T00:11:16.038Z,10.6
2016-05-05T00:12:30.555Z,10.6
2016-05-05T00:13:15.933Z,10.61
2016-05-05T00:14:16.717Z,10.6
2016-05-05T00:15:16.079Z,10.52
2016-05-05T00:16:15.754Z,10.56
2016-05-05T00:17:16.912Z,10.52
2016-05-05T00:18:15.932Z,10.48
2016-05-05T00:19:16.027Z,10.52
2016-05-05T00:20:15.593Z,10.66
2016-05-05T00:21:15.752Z,10.66
2016-05-05T00:22:15.895Z,10.67
2016-05-05T00:23:16.695Z,10.66
2016-05-05T00:24:16.432Z,10.68
2016-05-05T00:25:17.012Z,10.6
2016-05-05T00:26:15.718Z,10.63
2016-05-05T00:27:16.456Z,10.67
2016-05-05T00:28:16.161Z,10.76
2016-05-05T00:29:15.867Z,10.68
2016-05-05T00:30:15.556Z,10.76
2016-05-05T00:31:15.998Z,10.76
2016-05-05T00:32:15.859Z,10.78
2016-05-05T00:33:15.846Z,10.76
2016-05-05T00:34:15.850Z,10.76
2016-05-05T00:35:15.852Z,10.76
2016-05-05T00:36:15.839Z,10.74
2016-05-05T00:37:15.826Z,10.74
2016-05-05T00:38:15.844Z,10.74
2016-05-05T00:39:16.238Z,10.76
2016-05-05T00:40:15.833Z,10.78
2016-05-05T00:41:15.805Z,10.73
2016-05-05T00:42:15.808Z,10.76
2016-05-05T00:43:15.811Z,10.73
2016-05-05T00:44:15.641Z,10.73
2016-05-05T00:45:15.785Z,10.74
2016-05-05T00:46:15.802Z,10.74
2016-05-05T00:47:15.791Z,10.78
2016-05-05T00:48:15.777Z,10.79
2016-05-05T00:49:15.780Z,10.74
2016-05-05T00:50:15.782Z,10.74
2016-05-05T00:51:15.771Z,10.66
2016-05-05T00:52:15.757Z,10.64
2016-05-05T00:53:15.776Z,10.53
2016-05-05T00:54:15.778Z,10.6
2016-05-05T00:55:15.749Z,10.51
2016-05-05T00:56:15.440Z,10.59
2016-05-05T00:57:15.740Z,10.56
2016-05-05T00:58:15.743Z,10.63
2016-05-05T00:59:15.729Z,10.53
2016-05-05T01:00:15.731Z,10.52
2016-05-05T01:01:15.734Z,10.59
2016-05-05T01:02:15.721Z,10.59
2016-05-05T01:03:15.723Z,10.63
2016-05-05T01:04:15.711Z,10.63
2016-05-05T01:05:15.714Z,10.51
2016-05-05T01:06:15.717Z,10.61
2016-05-05T01:07:15.703Z,10.63
2016-05-05T01:08:15.691Z,10.53
2016-05-05T01:09:15.552Z,10.66
2016-05-05T01:10:15.696Z,10.59
2016-05-05T01:11:15.683Z,10.6
2016-05-05T01:12:15.685Z,10.56
2016-05-05T01:13:15.672Z,10.52
2016-05-05T01:14:15.675Z,10.48
2016-05-05T01:15:15.678Z,10.42
2016-05-05T01:16:15.681Z,10.44
2016-05-05T01:17:15.652Z,10.42
2016-05-05T01:18:15.655Z,10.47
2016-05-05T01:19:15.657Z,10.44
2016-05-05T01:20:30.223Z,10.59
2016-05-05T01:21:15.647Z,10.55
2016-05-05T01:22:15.635Z,10.53
2016-05-05T01:23:15.637Z,10.55
2016-05-05T01:24:15.796Z,10.61
2016-05-05T01:25:15.627Z,10.63
2016-05-05T01:26:15.630Z,10.7
2016-05-05T01:27:15.617Z,10.76
2016-05-05T01:28:16.463Z,10.71
2016-05-05T01:29:16.809Z,10.64
2016-05-05T01:30:16.250Z,10.68
2016-05-05T01:31:15.612Z,10.51
2016-05-05T01:32:15.677Z,10.53
2016-05-05T01:33:17.476Z,10.61
2016-05-05T01:34:17.120Z,10.51
2016-05-05T01:35:16.076Z,10.55
2016-05-05T01:36:15.579Z,10.51
2016-05-05T01:37:15.581Z,10.52
2016-05-05T01:38:15.568Z,10.47
2016-05-05T01:39:16.742Z,10.47
2016-05-05T01:40:15.433Z,10.4
2016-05-05T01:41:15.405Z,10.42
2016-05-05T01:42:16.204Z,10.34
2016-05-05T01:43:17.566Z,10.36
2016-05-05T01:44:15.538Z,10.3
2016-05-05T01:45:15.541Z,10.34
2016-05-05T01:46:16.402Z,10.33
2016-05-05T01:47:15.654Z,10.33
2016-05-05T01:48:16.032Z,10.34
2016-05-05T01:49:15.519Z,10.34
2016-05-05T01:50:15.507Z,10.33
2016-05-05T01:51:15.510Z,10.38
2016-05-05T01:52:15.533Z,10.36
2016-05-05T01:53:15.562Z,10.42
2016-05-05T01:54:15.608Z,10.44
2016-05-05T01:55:15.637Z,10.45
2016-05-05T01:56:15.370Z,10.48
2016-05-05T01:57:15.714Z,10.47
2016-05-05T01:58:15.748Z,10.51
2016-05-05T01:59:15.735Z,10.47
2016-05-05T02:00:15.737Z,10.4
2016-05-05T02:01:15.756Z,10.44
2016-05-05T02:02:15.769Z,10.45
2016-05-05T02:03:15.763Z,10.42
2016-05-05T02:04:15.598Z,10.51
2016-05-05T02:05:15.748Z,10.34
2016-05-05T02:06:15.756Z,10.38
2016-05-05T02:07:15.762Z,10.4
2016-05-05T02:08:15.767Z,10.4
2016-05-05T02:09:15.663Z,10.38
2016-05-05T02:10:15.745Z,10.27
2016-05-05T02:11:15.749Z,10.33
2016-05-05T02:12:15.598Z,10.32
2016-05-05T02:13:15.758Z,10.42
2016-05-05T02:14:15.744Z,10.38
2016-05-05T02:15:15.578Z,10.42
2016-05-05T02:16:15.736Z,10.4
2016-05-05T02:17:15.568Z,10.42
2016-05-05T02:18:15.727Z,10.34
2016-05-05T02:19:15.558Z,10.42
2016-05-05T02:20:15.718Z,10.38
2016-05-05T02:21:15.549Z,10.51
2016-05-05T02:22:15.709Z,10.47
2016-05-05T02:23:15.713Z,10.42
2016-05-05T02:24:15.965Z,10.44
2016-05-05T02:25:15.702Z,10.4
2016-05-05T02:26:15.689Z,10.4
2016-05-05T02:27:15.676Z,10.32
2016-05-05T02:28:15.679Z,10.3
2016-05-05T02:29:15.682Z,10.3
2016-05-05T02:30:15.669Z,10.38
2016-05-05T02:31:15.671Z,10.25
2016-05-05T02:32:15.346Z,10.25
2016-05-05T02:33:15.505Z,10.22
2016-05-05T02:34:15.492Z,10.25
2016-05-05T02:35:15.651Z,10.22
2016-05-05T02:36:16.794Z,10.2
2016-05-05T02:37:16.891Z,10.14
2016-05-05T02:38:16.378Z,10.11
2016-05-05T02:40:15.478Z,9.96
2016-05-05T02:41:15.620Z,10.04
2016-05-05T02:42:15.967Z,9.96
2016-05-05T02:43:15.766Z,10.02
2016-05-05T02:44:15.614Z,9.91
2016-05-05T02:45:15.444Z,9.93
2016-05-05T02:46:16.774Z,9.81
2016-05-05T02:47:15.605Z,9.83
2016-05-05T02:48:15.608Z,9.9
2016-05-05T02:49:16.032Z,9.87
2016-05-05T02:50:15.583Z,9.76
2016-05-05T02:51:16.913Z,9.78
2016-05-05T02:52:16.603Z,9.74
2016-05-05T02:53:15.746Z,9.65
2016-05-05T02:54:16.812Z,9.75
2016-05-05T02:55:15.549Z,9.71
2016-05-05T02:56:15.552Z,9.61
2016-05-05T02:57:15.398Z,9.56
2016-05-05T02:58:15.541Z,9.57
2016-05-05T02:59:15.544Z,9.56
2016-05-05T03:00:15.563Z,9.48
2016-05-05T03:01:15.518Z,9.48
2016-05-05T03:02:16.084Z,9.36
2016-05-05T03:03:16.226Z,9.4
2016-05-05T03:04:15.495Z,9.46
2016-05-05T03:05:16.123Z,9.38
2016-05-05T03:06:15.344Z,9.29
2016-05-05T03:07:15.503Z,9.29
2016-05-05T03:08:15.490Z,9.28
2016-05-05T03:09:15.181Z,9.23
2016-05-05T03:10:15.323Z,9.11
2016-05-05T03:11:15.482Z,9.08
2016-05-05T03:12:15.313Z,8.99
2016-05-05T03:13:15.472Z,9.04
2016-05-05T03:14:15.459Z,8.95
2016-05-05T03:15:15.446Z,8.94
2016-05-05T03:16:15.449Z,8.77
2016-05-05T03:17:15.452Z,8.74
2016-05-05T03:18:15.439Z,8.7
2016-05-05T03:19:15.442Z,8.73
2016-05-05T03:20:15.444Z,8.77
2016-05-05T03:21:15.430Z,8.77
2016-05-05T03:22:15.418Z,8.68
2016-05-05T03:23:15.405Z,8.55
2016-05-05T03:24:16.174Z,8.63
2016-05-05T03:25:15.396Z,8.61
2016-05-05T03:26:15.398Z,8.56
2016-05-05T03:27:15.401Z,8.48
2016-05-05T03:28:15.387Z,8.45
2016-05-05T03:29:15.219Z,8.38
2016-05-05T03:30:15.377Z,8.43
2016-05-05T03:31:15.223Z,8.41
2016-05-05T03:32:15.367Z,8.52
2016-05-05T03:33:15.370Z,8.36
2016-05-05T03:34:15.357Z,8.34
2016-05-05T03:35:15.344Z,8.33
2016-05-05T03:36:15.346Z,8.33
2016-05-05T03:37:15.334Z,8.3
2016-05-05T03:38:15.337Z,8.29
2016-05-05T03:39:15.339Z,8.23
2016-05-05T03:40:15.311Z,8.19
2016-05-05T03:41:15.156Z,8.25
2016-05-05T03:42:15.316Z,8.11
2016-05-05T03:43:15.303Z,8.15
2016-05-05T03:44:15.150Z,8.25
2016-05-05T03:45:15.292Z,8.15
2016-05-05T03:46:15.123Z,8.1
2016-05-05T03:47:15.283Z,8.15
2016-05-05T03:48:15.270Z,8.26
2016-05-05T03:49:15.272Z,8.19
2016-05-05T03:50:15.274Z,8.19
2016-05-05T03:51:15.261Z,8.26
2016-05-05T03:52:15.249Z,8.28
2016-05-05T03:53:15.235Z,8.28
2016-05-05T03:54:15.754Z,8.28
2016-05-05T03:55:16.491Z,8.28
2016-05-05T03:56:15.916Z,8.26
2016-05-05T03:57:16.138Z,8.33
2016-05-05T03:58:15.218Z,8.26
2016-05-05T03:59:15.877Z,8.37
2016-05-05T04:00:15.410Z,8.4
2016-05-05T04:01:15.210Z,8.37
2016-05-05T04:02:15.088Z,8.4
2016-05-05T04:03:15.200Z,8.41
2016-05-05T04:04:15.171Z,8.48
2016-05-05T04:05:16.221Z,8.68
2016-05-05T04:06:15.568Z,8.77
2016-05-05T04:07:15.165Z,8.94
2016-05-05T04:08:15.464Z,9.08
2016-05-05T04:09:15.654Z,9.21
2016-05-05T04:10:16.203Z,9.36
2016-05-05T04:11:15.534Z,9.56
2016-05-05T04:12:16.209Z,9.71
2016-05-05T04:13:15.134Z,9.93
2016-05-05T04:14:15.120Z,10.02
2016-05-05T04:15:15.905Z,10.3
2016-05-05T04:16:15.111Z,10.51
2016-05-05T04:17:15.114Z,10.74
2016-05-05T04:18:14.944Z,10.89
2016-05-05T04:19:15.103Z,11.27
2016-05-05T04:20:15.933Z,11.44
2016-05-05T04:21:14.952Z,11.55
2016-05-05T04:22:16.252Z,11.83
2016-05-05T04:23:15.410Z,11.95
2016-05-05T04:24:15.413Z,12.13
2016-05-05T04:25:15.650Z,12.28
2016-05-05T04:26:14.981Z,12.47
2016-05-05T04:27:15.078Z,12.64
2016-05-05T04:28:15.080Z,12.92
2016-05-05T04:29:15.083Z,13.11
2016-05-05T04:30:15.085Z,13.36
2016-05-05T04:31:15.073Z,13.57
2016-05-05T04:32:15.076Z,13.66
2016-05-05T04:33:15.093Z,13.85
2016-05-05T04:34:15.065Z,14.12
2016-05-05T04:35:14.911Z,14.22
2016-05-05T04:36:15.071Z,14.47
2016-05-05T04:37:15.057Z,14.77
2016-05-05T04:38:14.904Z,14.83
2016-05-05T04:39:15.079Z,15.06
2016-05-05T04:40:15.065Z,15.27
2016-05-05T04:41:15.068Z,15.46
2016-05-05T04:42:14.915Z,15.68
2016-05-05T04:43:15.073Z,15.94
2016-05-05T04:44:15.076Z,16.17
2016-05-05T04:45:15.064Z,16.39
2016-05-05T04:46:15.067Z,16.66
2016-05-05T04:47:15.069Z,16.73
2016-05-05T04:48:14.914Z,16.7
2016-05-05T04:49:14.918Z,16.94
2016-05-05T04:50:15.077Z,16.98
2016-05-05T04:51:15.080Z,17.19
2016-05-05T04:52:14.925Z,17.41
2016-05-05T04:53:15.086Z,17.48
2016-05-05T04:54:15.010Z,17.62
2016-05-05T04:55:15.090Z,17.68
2016-05-05T04:56:15.078Z,17.87
2016-05-05T04:57:15.096Z,17.92
2016-05-05T04:58:15.098Z,18.1
2016-05-05T04:59:15.102Z,18.08
2016-05-05T05:00:14.947Z,18.23
2016-05-05T05:01:15.107Z,18.42
2016-05-05T05:02:15.110Z,18.51
2016-05-05T05:03:15.112Z,18.81
2016-05-05T05:04:14.957Z,19.16
2016-05-05T05:05:15.117Z,19.5
2016-05-05T05:06:15.121Z,19.73
2016-05-05T05:07:15.138Z,19.95
2016-05-05T05:08:14.985Z,20.02
2016-05-05T05:09:15.675Z,20.21
2016-05-05T05:10:15.146Z,20.03
2016-05-05T05:11:15.148Z,20.05
2016-05-05T05:12:15.152Z,20.23
2016-05-05T05:13:15.170Z,20.35
2016-05-05T05:14:15.610Z,20.57
2016-05-05T05:15:15.988Z,20.7
2016-05-05T05:16:16.037Z,20.61
2016-05-05T05:17:29.367Z,20.57
2016-05-05T05:18:15.199Z,20.32
2016-05-05T05:19:15.248Z,20.31
2016-05-05T05:20:15.361Z,20.47
2016-05-05T05:21:15.520Z,20.67
2016-05-05T05:22:15.225Z,21.03
2016-05-05T05:23:17.181Z,21.25
2016-05-05T05:24:16.122Z,21.28
2016-05-05T05:25:15.249Z,21.49
2016-05-05T05:26:29.533Z,21.74
2016-05-05T05:27:15.957Z,21.96
2016-05-05T05:28:29.444Z,22.07
2016-05-05T05:29:15.963Z,22.25
2016-05-05T05:30:17.107Z,22.47
2016-05-05T05:31:15.296Z,22.55
2016-05-05T05:32:15.471Z,22.36
2016-05-05T05:33:15.005Z,22.51
2016-05-05T05:34:15.320Z,22.6
2016-05-05T05:35:15.682Z,22.6
2016-05-05T05:36:15.341Z,22.27
2016-05-05T05:37:15.453Z,22.3
2016-05-05T05:38:15.206Z,22.17
2016-05-05T05:39:16.912Z,21.98
2016-05-05T05:40:16.243Z,21.84
2016-05-05T05:41:15.401Z,21.44
2016-05-05T05:42:16.170Z,21.47
2016-05-05T05:43:16.297Z,21.58
2016-05-05T05:44:15.425Z,21.67
2016-05-05T05:45:15.615Z,21.59
2016-05-05T05:46:15.446Z,21.61
2016-05-05T05:47:15.464Z,21.44
2016-05-05T05:48:15.451Z,21.47
2016-05-05T05:49:15.314Z,21.47
2016-05-05T05:50:15.316Z,21.31
2016-05-05T05:51:15.491Z,21.17
2016-05-05T05:52:15.509Z,21.12
2016-05-05T05:53:15.199Z,21.06
2016-05-05T05:54:15.374Z,20.7
2016-05-05T05:55:15.533Z,20.67
2016-05-05T05:56:15.379Z,20.77
2016-05-05T05:57:15.397Z,20.94
2016-05-05T05:58:15.572Z,20.98
2016-05-05T05:59:15.560Z,20.84
2016-05-05T06:00:15.577Z,20.39
2016-05-05T06:01:15.596Z,20.06
2016-05-05T06:02:15.598Z,19.92
2016-05-05T06:03:15.616Z,19.62
2016-05-05T06:04:15.635Z,19.4
2016-05-05T06:05:15.638Z,19.54
2016-05-05T06:06:15.641Z,19.94
2016-05-05T06:07:15.659Z,20.47
2016-05-05T06:08:15.661Z,21.16
2016-05-05T06:09:16.711Z,21.4
2016-05-05T06:10:15.574Z,21.37
2016-05-05T06:11:15.545Z,21.37
2016-05-05T06:12:15.719Z,21.69
2016-05-05T06:13:15.753Z,21.99
2016-05-05T06:14:15.725Z,21.99
2016-05-05T06:15:15.617Z,21.99
2016-05-05T06:16:15.761Z,22
2016-05-05T06:17:15.764Z,21.98
2016-05-05T06:18:15.781Z,21.94
2016-05-05T06:19:15.784Z,22
2016-05-05T06:20:15.803Z,22.03
2016-05-05T06:21:15.822Z,21.86
2016-05-05T06:22:15.824Z,21.82
2016-05-05T06:23:15.602Z,21.94
2016-05-05T06:24:15.902Z,22.3
2016-05-05T06:25:15.857Z,22.55
2016-05-05T06:26:15.877Z,22.67
2016-05-05T06:27:15.879Z,22.86
2016-05-05T06:28:15.896Z,22.95
2016-05-05T06:29:15.915Z,23.28
2016-05-05T06:30:15.918Z,23.57
2016-05-05T06:31:15.796Z,23.79
2016-05-05T06:32:15.940Z,24.27
2016-05-05T06:33:17.067Z,24.58
2016-05-05T06:34:16.757Z,24.6
2016-05-05T06:35:16.025Z,24.34
2016-05-05T06:36:15.996Z,24.47
2016-05-05T06:37:15.999Z,24.8
2016-05-05T06:38:16.017Z,25.17
2016-05-05T06:39:16.254Z,25.45
2016-05-05T06:40:16.148Z,25.33
2016-05-05T06:41:16.056Z,25.51
2016-05-05T06:43:16.094Z,25.55
2016-05-05T06:44:16.753Z,25.65
2016-05-05T06:45:16.505Z,25.67
2016-05-05T06:46:16.133Z,25.67
2016-05-05T06:47:16.198Z,25.77
2016-05-05T06:48:18.122Z,26.02
2016-05-05T06:49:16.172Z,26.15
2016-05-05T06:50:16.253Z,26.39
2016-05-05T06:51:16.208Z,26.57
2016-05-05T06:52:16.868Z,26.73
2016-05-05T06:53:16.230Z,26.7
2016-05-05T06:54:16.264Z,26.77
2016-05-05T06:55:16.360Z,26.92
2016-05-05T06:56:16.269Z,27.17
2016-05-05T06:57:16.757Z,27.32
2016-05-05T06:58:16.305Z,27.5
2016-05-05T06:59:18.012Z,27.49
2016-05-05T07:00:16.185Z,27.51
2016-05-05T07:01:16.689Z,27.43
2016-05-05T07:02:16.363Z,27.14
2016-05-05T07:03:16.491Z,26.92
2016-05-05T07:04:16.401Z,26.69
2016-05-05T07:05:16.419Z,26.5
2016-05-05T07:06:16.421Z,26.44
2016-05-05T07:07:16.284Z,26.2
2016-05-05T07:08:16.457Z,26.48
2016-05-05T07:09:16.351Z,26.82
2016-05-05T07:10:16.495Z,26.99
2016-05-05T07:11:16.512Z,27.28
2016-05-05T07:12:16.531Z,27.62
2016-05-05T07:13:16.550Z,27.9
2016-05-05T07:14:16.568Z,28.07
2016-05-05T07:15:16.586Z,28.24
2016-05-05T07:16:16.603Z,28.39
2016-05-05T07:17:16.607Z,28.61
2016-05-05T07:18:16.625Z,28.9
2016-05-05T07:19:16.644Z,29.06
2016-05-05T07:20:16.661Z,29.23
2016-05-05T07:21:16.680Z,29.23
2016-05-05T07:22:16.699Z,29.05
2016-05-05T07:23:16.716Z,28.98
2016-05-05T07:24:17.188Z,28.48
2016-05-05T07:25:16.753Z,27.97
2016-05-05T07:26:16.772Z,27.97
2016-05-05T07:27:16.618Z,28.19
2016-05-05T07:28:16.808Z,28.41
2016-05-05T07:29:16.811Z,28.49
2016-05-05T07:30:16.674Z,28.76
2016-05-05T07:31:16.707Z,29.02
2016-05-05T07:32:16.897Z,29.42
2016-05-05T07:33:16.900Z,29.71
2016-05-05T07:34:16.902Z,29.82
2016-05-05T07:35:16.937Z,29.73
2016-05-05T07:36:16.799Z,29.67
2016-05-05T07:37:16.973Z,29.64
2016-05-05T07:38:16.992Z,29.52
2016-05-05T07:39:16.853Z,29.64
2016-05-05T07:40:17.029Z,29.65
2016-05-05T07:41:17.031Z,29.65
2016-05-05T07:42:17.048Z,29.49
2016-05-05T07:43:17.084Z,29.45
2016-05-05T07:44:16.945Z,29.57
2016-05-05T07:45:17.120Z,29.65
2016-05-05T07:46:17.153Z,29.76
2016-05-05T07:47:17.156Z,29.83
2016-05-05T07:48:17.175Z,29.95
2016-05-05T07:49:17.192Z,29.53
2016-05-05T07:50:17.212Z,29.21
2016-05-05T07:52:17.248Z,29.34
2016-05-05T07:53:17.719Z,29.53
2016-05-05T07:54:18.503Z,29.65
2016-05-05T07:55:17.599Z,29.49
2016-05-05T07:56:17.321Z,29.73
2016-05-05T07:57:17.183Z,29.89
2016-05-05T07:58:17.358Z,29.79
2016-05-05T07:59:17.377Z,29.74
2016-05-05T08:00:17.394Z,29.74
2016-05-05T08:01:17.475Z,29.8
2016-05-05T08:02:18.040Z,29.92
2016-05-05T08:03:17.762Z,29.79
2016-05-05T08:04:17.483Z,29.7
2016-05-05T08:05:17.846Z,29.58
2016-05-05T08:06:17.661Z,29.45
2016-05-05T08:07:18.335Z,29.65
2016-05-05T08:08:17.556Z,29.79
2016-05-05T08:09:17.591Z,29.97
2016-05-05T08:10:18.249Z,30.31
2016-05-05T08:11:18.174Z,30.45
2016-05-05T08:12:18.348Z,30.62
2016-05-05T08:13:17.664Z,30.75
2016-05-05T08:14:17.682Z,30.77
2016-05-05T08:15:17.701Z,30.72
2016-05-05T08:16:18.969Z,30.58
2016-05-05T08:17:18.033Z,30.35
2016-05-05T08:18:18.818Z,30.04
2016-05-05T08:19:18.867Z,29.85
2016-05-05T08:20:18.526Z,29.83
2016-05-05T08:21:17.826Z,29.95
2016-05-05T08:22:18.001Z,30.07
2016-05-05T08:23:17.863Z,30.05
2016-05-05T08:24:18.319Z,29.8
2016-05-05T08:25:17.899Z,29.7
2016-05-05T08:26:17.761Z,29.45
2016-05-05T08:27:17.952Z,29.14
2016-05-05T08:28:17.955Z,28.71
2016-05-05T08:29:17.972Z,28
2016-05-05T08:30:18.007Z,27.34
2016-05-05T08:31:18.025Z,26.87
2016-05-05T08:32:18.027Z,26.52
2016-05-05T08:33:17.905Z,26.23
2016-05-05T08:34:18.064Z,25.9
2016-05-05T08:35:18.082Z,25.72
2016-05-05T08:36:18.101Z,25.57
2016-05-05T08:37:18.119Z,25.28
2016-05-05T08:38:17.996Z,25.02
2016-05-05T08:39:18.077Z,24.8
2016-05-05T08:40:18.173Z,24.62
2016-05-05T08:41:18.192Z,24.12
2016-05-05T08:42:18.210Z,23.68
2016-05-05T08:43:18.213Z,23.39
2016-05-05T08:44:18.231Z,23.17
2016-05-05T08:45:18.094Z,23.01
2016-05-05T08:46:18.253Z,22.62
2016-05-05T08:47:18.302Z,22.24
2016-05-05T08:48:18.289Z,21.91
2016-05-05T08:49:18.292Z,21.71
2016-05-05T08:50:18.311Z,21.44
2016-05-05T08:51:18.172Z,21.07
2016-05-05T08:52:18.175Z,20.94
2016-05-05T08:53:18.334Z,20.77
2016-05-05T08:54:18.196Z,20.73
2016-05-05T08:55:18.370Z,20.69
2016-05-05T08:56:18.233Z,20.66
2016-05-05T08:57:18.408Z,20.61
2016-05-05T08:58:18.394Z,20.51
2016-05-05T08:59:18.396Z,20.23
2016-05-05T09:00:18.400Z,20.08
2016-05-05T09:01:18.419Z,20.06
2016-05-05T09:02:18.435Z,20.08
2016-05-05T09:03:18.424Z,20.17
2016-05-05T09:04:18.426Z,20.03
2016-05-05T09:05:18.444Z,20.08
2016-05-05T09:06:18.446Z,19.94
2016-05-05T09:07:18.465Z,19.88
2016-05-05T09:08:18.452Z,19.81
2016-05-05T09:09:18.940Z,19.74
2016-05-05T09:10:32.801Z,19.65
2016-05-05T09:11:19.070Z,19.56
2016-05-05T09:12:18.476Z,19.43
2016-05-05T09:13:18.479Z,19.39
2016-05-05T09:14:18.341Z,19.28
2016-05-05T09:15:32.518Z,19.22
2016-05-05T09:16:18.503Z,19
2016-05-05T09:17:18.506Z,18.84
2016-05-05T09:18:18.509Z,18.69
2016-05-05T09:19:18.510Z,18.57
2016-05-05T09:20:32.687Z,18.44
2016-05-05T09:21:18.469Z,18.3
2016-05-05T09:22:21.693Z,18.26
2016-05-05T09:23:18.678Z,18.32
2016-05-05T09:24:18.258Z,18.32
2016-05-05T09:25:19.169Z,18.32
2016-05-05T09:26:18.935Z,18.35
2016-05-05T09:27:18.236Z,18.42
2016-05-05T09:28:19.756Z,18.57
2016-05-05T09:29:18.381Z,18.57
2016-05-05T09:30:18.588Z,18.58
2016-05-05T09:31:18.393Z,18.58
2016-05-05T09:32:18.539Z,18.73
2016-05-05T09:33:18.588Z,18.66
2016-05-05T09:34:18.575Z,18.82
2016-05-05T09:35:18.577Z,18.82
2016-05-05T09:36:19.361Z,18.88
2016-05-05T09:37:19.694Z,18.82
2016-05-05T09:38:19.116Z,18.78
2016-05-05T09:39:18.571Z,18.8
2016-05-05T09:40:18.575Z,18.78
2016-05-05T09:41:18.577Z,18.75
2016-05-05T09:42:18.570Z,18.65
2016-05-05T09:43:18.687Z,18.6
2016-05-05T09:44:18.596Z,18.55
2016-05-05T09:45:18.582Z,18.55
2016-05-05T09:46:18.584Z,18.48
2016-05-05T09:47:18.901Z,18.5
2016-05-05T09:48:18.590Z,18.52
2016-05-05T09:49:18.437Z,18.45
2016-05-05T09:50:18.596Z,18.37
2016-05-05T09:51:18.598Z,18.29
2016-05-05T09:52:18.601Z,18.32
2016-05-05T09:53:18.604Z,18.29
2016-05-05T09:54:19.075Z,18.32
2016-05-05T09:55:18.609Z,18.32
2016-05-05T09:56:18.456Z,18.27
2016-05-05T09:57:18.646Z,18.29
2016-05-05T09:58:18.617Z,18.29
2016-05-05T09:59:18.620Z,18.37
2016-05-05T10:00:18.622Z,18.33
2016-05-05T10:01:18.313Z,18.39
2016-05-05T10:02:18.613Z,18.37
2016-05-05T10:03:18.630Z,18.48
2016-05-05T10:04:18.477Z,18.48
2016-05-05T10:05:18.464Z,18.55
2016-05-05T10:06:18.482Z,18.57
2016-05-05T10:07:18.626Z,18.54
2016-05-05T10:08:18.629Z,18.63
2016-05-05T10:09:18.646Z,18.66
2016-05-05T10:10:18.696Z,18.57
2016-05-05T10:11:18.652Z,18.66
2016-05-05T10:12:18.498Z,18.7
2016-05-05T10:13:18.643Z,18.69
2016-05-05T10:14:18.504Z,18.55
2016-05-05T10:15:18.647Z,18.51
2016-05-05T10:16:18.651Z,18.41
2016-05-05T10:17:18.668Z,18.32
2016-05-05T10:18:18.670Z,18.29
2016-05-05T10:19:18.518Z,18.32
2016-05-05T10:20:18.505Z,18.27
2016-05-05T10:21:18.507Z,18.39
2016-05-05T10:22:18.511Z,18.45
2016-05-05T10:23:18.669Z,18.51
2016-05-05T10:24:18.687Z,18.5
2016-05-05T10:25:18.674Z,18.55
2016-05-05T10:26:18.677Z,18.6
2016-05-05T10:27:18.680Z,18.58
2016-05-05T10:28:19.933Z,18.54
2016-05-05T10:29:20.029Z,18.54
2016-05-05T10:30:18.532Z,18.58
2016-05-05T10:31:18.737Z,18.55
2016-05-05T10:32:18.787Z,18.57
2016-05-05T10:33:18.697Z,18.63
2016-05-05T10:34:18.886Z,18.73
2016-05-05T10:35:18.842Z,18.8
2016-05-05T10:36:18.688Z,18.78
2016-05-05T10:37:18.707Z,18.78
2016-05-05T10:38:33.431Z,18.91
2016-05-05T10:39:19.587Z,18.82
2016-05-05T10:40:18.715Z,18.9
2016-05-05T10:41:18.701Z,18.91
2016-05-05T10:42:18.704Z,18.91
2016-05-05T10:43:18.395Z,18.92
2016-05-05T10:44:19.351Z,18.87
2016-05-05T10:45:18.728Z,18.94
2016-05-05T10:46:19.950Z,18.91
2016-05-05T10:47:18.406Z,18.92
2016-05-05T10:48:18.721Z,18.9
2016-05-05T10:49:19.364Z,18.95
2016-05-05T10:50:18.726Z,19.08
2016-05-05T10:51:18.572Z,19
2016-05-05T10:52:18.731Z,19.04
2016-05-05T10:53:18.734Z,19.07
2016-05-05T10:54:18.752Z,19.06
2016-05-05T10:55:18.755Z,19.07
2016-05-05T10:56:18.758Z,19.16
2016-05-05T10:57:19.245Z,19.06
2016-05-05T10:58:19.653Z,19.13
2016-05-05T10:59:18.985Z,19.11
2016-05-05T11:00:19.266Z,19.06
2016-05-05T11:01:18.874Z,19
2016-05-05T11:02:18.765Z,19.02
2016-05-05T11:03:18.967Z,19.08
2016-05-05T11:04:18.837Z,19.06
2016-05-05T11:05:18.856Z,19.07
2016-05-05T11:06:19.030Z,19.08
2016-05-05T11:07:19.049Z,19.13
2016-05-05T11:08:19.067Z,19.11
2016-05-05T11:09:19.079Z,19.19
2016-05-05T11:10:19.072Z,19.31
2016-05-05T11:11:19.080Z,19.28
2016-05-05T11:12:18.947Z,19.36
2016-05-05T11:13:19.111Z,19.33
2016-05-05T11:14:19.101Z,19.36
2016-05-05T11:15:18.949Z,19.37
2016-05-05T11:16:19.110Z,19.39
2016-05-05T11:17:19.130Z,19.43
2016-05-05T11:18:19.134Z,19.4
2016-05-05T11:19:19.139Z,19.36
2016-05-05T11:20:19.142Z,19.36
2016-05-05T11:21:18.833Z,19.37
2016-05-05T11:22:19.134Z,19.48
2016-05-05T11:23:19.165Z,19.39
2016-05-05T11:24:19.137Z,19.4
2016-05-05T11:25:19.155Z,19.4
2016-05-05T11:26:19.158Z,19.43
2016-05-05T11:27:19.146Z,19.47
2016-05-05T11:28:19.008Z,19.47
2016-05-05T11:29:18.995Z,19.41
2016-05-05T11:30:19.155Z,19.47
2016-05-05T11:31:19.000Z,19.47
2016-05-05T11:32:19.161Z,19.55
2016-05-05T11:33:19.007Z,19.58
2016-05-05T11:34:19.181Z,19.55
2016-05-05T11:35:19.168Z,19.66
2016-05-05T11:36:19.186Z,19.63
2016-05-05T11:37:19.017Z,19.61
2016-05-05T11:38:19.191Z,19.61
2016-05-05T11:39:19.022Z,19.51
2016-05-05T11:40:19.308Z,19.59
2016-05-05T11:41:19.185Z,19.4
2016-05-05T11:42:19.031Z,19.43
2016-05-05T11:43:19.190Z,19.4
2016-05-05T11:44:19.036Z,19.41
2016-05-05T11:45:19.195Z,19.4
2016-05-05T11:46:19.199Z,19.56
2016-05-05T11:47:19.201Z,19.5
2016-05-05T11:48:20.954Z,19.48
2016-05-05T11:49:20.003Z,19.4
2016-05-05T11:50:19.209Z,19.39
2016-05-05T11:51:19.727Z,19.37
2016-05-05T11:52:19.214Z,19.43
2016-05-05T11:53:19.217Z,19.37
2016-05-05T11:54:19.298Z,19.22
2016-05-05T11:55:19.238Z,19.14
2016-05-05T11:56:19.257Z,19.08
2016-05-05T11:57:21.181Z,19.07
2016-05-05T11:58:19.887Z,19.07
2016-05-05T11:59:19.233Z,19.1
2016-05-05T12:00:19.236Z,19.16
2016-05-05T12:01:19.081Z,19.08
2016-05-05T12:02:19.647Z,19.14
2016-05-05T12:03:19.884Z,19.19
2016-05-05T12:04:21.325Z,19.21
2016-05-05T12:05:19.265Z,19.16
2016-05-05T12:06:19.252Z,19.18
2016-05-05T12:07:19.239Z,19.26
2016-05-05T12:08:19.757Z,19.29
2016-05-05T12:09:19.103Z,19.21
2016-05-05T12:10:19.153Z,19.11
2016-05-05T12:11:19.094Z,19.23
2016-05-05T12:12:20.049Z,19.19
2016-05-05T12:13:19.271Z,19.21
2016-05-05T12:14:19.273Z,19.26
2016-05-05T12:15:19.713Z,19.31
2016-05-05T12:16:20.418Z,19.44
2016-05-05T12:17:19.454Z,19.47
2016-05-05T12:18:19.300Z,19.47
2016-05-05T12:19:19.302Z,19.48
2016-05-05T12:20:19.258Z,19.56
2016-05-05T12:21:19.292Z,19.55
2016-05-05T12:22:19.279Z,19.59
2016-05-05T12:23:19.125Z,19.68
2016-05-05T12:24:19.300Z,19.74
2016-05-05T12:25:19.147Z,19.74
2016-05-05T12:26:19.290Z,19.76
2016-05-05T12:27:19.309Z,19.69
2016-05-05T12:28:19.139Z,19.74
2016-05-05T12:29:19.157Z,19.77
2016-05-05T12:30:19.300Z,19.76
2016-05-05T12:31:19.320Z,19.8
2016-05-05T12:32:19.306Z,19.8
2016-05-05T12:33:19.308Z,19.87
2016-05-05T12:34:19.311Z,19.88
2016-05-05T12:35:19.314Z,19.88
2016-05-05T12:36:19.316Z,19.91
2016-05-05T12:37:19.319Z,19.92
2016-05-05T12:38:19.322Z,20.02
2016-05-05T12:39:19.184Z,20.05
2016-05-05T12:40:19.171Z,20.1
2016-05-05T12:41:19.330Z,20.1
2016-05-05T12:42:19.333Z,20.02
2016-05-05T12:43:19.351Z,20.05
2016-05-05T12:44:19.182Z,20.03
2016-05-05T12:45:19.341Z,20.05
2016-05-05T12:46:19.344Z,20.02
2016-05-05T12:47:19.346Z,20.08
2016-05-05T12:48:19.349Z,20.14
2016-05-05T12:49:19.352Z,20.03
2016-05-05T12:50:19.198Z,20.16
2016-05-05T12:51:19.357Z,20.24
2016-05-05T12:52:19.359Z,20.31
2016-05-05T12:53:19.362Z,20.36
2016-05-05T12:54:19.381Z,20.41
2016-05-05T12:55:19.681Z,20.5
2016-05-05T12:56:19.215Z,20.57
2016-05-05T12:57:19.373Z,20.61
2016-05-05T12:58:19.219Z,20.66
2016-05-05T12:59:19.222Z,20.7
2016-05-05T13:00:19.382Z,20.88
2016-05-05T13:01:19.243Z,20.8